Time;durP1;ratioP1;P1;durP2;ratioP2;P2;SDS_P1;SDS_P2;PMS_P1;PMS_P2;Temp;Humidity;BMP_temperature;BMP_pressure;BME280_temperature;BME280_humidity;BME280_pressure;Samples;Min_cycle;Max_cycle;Signal;HPM_P1;HPM_P2
2022/09/28 00:00:59;;;;;;;11.60;6.40;;;;;;;;;;5034524;28;20393;-69
2022/09/28 00:03:26;;;;;;;12.63;6.65;;;;;;;;;;5034002;28;20040;-69
2022/09/28 00:05:52;;;;;;;14.15;7.80;;;;;;;;;;5015691;28;20047;-69
2022/09/28 00:08:18;;;;;;;10.15;6.25;;;;;;;;;;5033857;28;20026;-69
2022/09/28 00:10:45;;;;;;;14.13;7.18;;;;;;;;;;5033422;28;20065;-69
2022/09/28 00:13:11;;;;;;;14.10;7.95;;;;;;;;;;5055137;23;20104;-74
2022/09/28 00:15:37;;;;;;;14.90;6.65;;;;;;;;;;5032600;28;20025;-73
2022/09/28 00:18:03;;;;;;;12.20;7.50;;;;;;;;;;5031406;28;20053;-74
2022/09/28 00:20:28;;;;;;;17.02;7.85;;;;;;;;;;5032279;28;20032;-75
2022/09/28 00:22:54;;;;;;;17.33;8.15;;;;;;;;;;5034508;28;20645;-74
2022/09/28 00:25:20;;;;;;;10.90;7.45;;;;;;;;;;5037937;28;20071;-73
2022/09/28 00:27:50;;;;;;;15.63;8.07;;;;;;;;;;5018723;28;20030;-74
2022/09/28 00:30:16;;;;;;;14.63;7.82;;;;;;;;;;5036423;28;20029;-73
2022/09/28 00:32:42;;;;;;;13.30;8.13;;;;;;;;;;5038483;28;20013;-73
2022/09/28 00:35:08;;;;;;;14.75;8.30;;;;;;;;;;5040151;28;20063;-74
2022/09/28 00:37:34;;;;;;;11.48;8.13;;;;;;;;;;5031305;28;20022;-73
2022/09/28 00:40:00;;;;;;;19.13;8.55;;;;;;;;;;5052072;28;20028;-73
2022/09/28 00:42:27;;;;;;;18.35;8.50;;;;;;;;;;5054365;28;20025;-73
2022/09/28 00:44:56;;;;;;;17.02;8.85;;;;;;;;;;5044800;28;20530;-74
2022/09/28 00:47:28;;;;;;;17.58;9.40;;;;;;;;;;5040442;28;20021;-74
2022/09/28 00:50:02;;;;;;;14.93;8.65;;;;;;;;;;5035289;28;20068;-74
2022/09/28 00:52:34;;;;;;;13.07;9.02;;;;;;;;;;5014276;28;20041;-74
2022/09/28 00:55:01;;;;;;;14.25;9.45;;;;;;;;;;5031952;28;20394;-73
2022/09/28 00:57:28;;;;;;;15.52;9.05;;;;;;;;;;5032000;28;20025;-74
2022/09/28 00:59:54;;;;;;;17.10;9.82;;;;;;;;;;5014488;28;20026;-74
2022/09/28 01:02:20;;;;;;;19.63;9.80;;;;;;;;;;5031721;28;20022;-73
2022/09/28 01:04:46;;;;;;;15.68;10.00;;;;;;;;;;5032107;28;20026;-74
2022/09/28 01:07:13;;;;;;;13.80;9.05;;;;;;;;;;5031887;28;20026;-75
2022/09/28 01:09:39;;;;;;;13.43;9.25;;;;;;;;;;5031930;28;20022;-73
2022/09/28 01:12:15;;;;;;;14.98;10.25;;;;;;;;;;5031656;28;20564;-73
2022/09/28 01:14:41;;;;;;;14.35;10.27;;;;;;;;;;5031914;28;20486;-74
2022/09/28 01:17:13;;;;;;;13.50;9.80;;;;;;;;;;5031913;28;20097;-74
2022/09/28 01:19:54;;;;;;;19.42;11.20;;;;;;;;;;5032453;28;20498;-73
2022/09/28 01:22:35;;;;;;;25.63;11.15;;;;;;;;;;5032165;28;20044;-73
2022/09/28 01:25:11;;;;;;;16.40;10.93;;;;;;;;;;5032174;28;20068;-74
2022/09/28 01:27:40;;;;;;;13.85;10.93;;;;;;;;;;5032203;28;20434;-74
2022/09/28 01:30:06;;;;;;;17.42;11.48;;;;;;;;;;5031801;28;20390;-74
2022/09/28 01:32:51;;;;;;;20.55;11.02;;;;;;;;;;5033979;28;20072;-73
2022/09/28 01:35:23;;;;;;;17.60;11.50;;;;;;;;;;5018102;28;20025;-73
2022/09/28 01:37:53;;;;;;;17.20;11.20;;;;;;;;;;5015834;28;20152;-74
2022/09/28 01:40:24;;;;;;;16.67;10.65;;;;;;;;;;5036126;28;20026;-73
2022/09/28 01:42:53;;;;;;;22.88;11.57;;;;;;;;;;5035879;28;20339;-74
2022/09/28 01:45:30;;;;;;;15.23;10.65;;;;;;;;;;5035706;28;20116;-74
2022/09/28 01:47:59;;;;;;;21.73;11.77;;;;;;;;;;5036657;28;20029;-73
2022/09/28 01:50:27;;;;;;;20.75;11.35;;;;;;;;;;5037127;28;20124;-74
2022/09/28 01:53:19;;;;;;;17.50;11.30;;;;;;;;;;5036668;28;20026;-73
2022/09/28 01:55:48;;;;;;;18.30;11.38;;;;;;;;;;5033765;28;20045;-73
2022/09/28 01:58:16;;;;;;;19.70;12.10;;;;;;;;;;5048409;28;20021;-74
2022/09/28 02:00:44;;;;;;;22.23;11.90;;;;;;;;;;5060067;28;20052;-74
2022/09/28 02:03:10;;;;;;;18.92;11.10;;;;;;;;;;5059176;28;20021;-73
2022/09/28 02:05:38;;;;;;;18.02;12.05;;;;;;;;;;5039891;28;20076;-73
2022/09/28 02:08:06;;;;;;;17.20;12.27;;;;;;;;;;5034779;28;20084;-73
2022/09/28 02:10:43;;;;;;;21.15;13.88;;;;;;;;;;5034873;28;20044;-73
2022/09/28 02:13:19;;;;;;;27.15;13.65;;;;;;;;;;5016247;28;20037;-74
2022/09/28 02:15:50;;;;;;;21.17;12.63;;;;;;;;;;5034363;28;20021;-74
2022/09/28 02:18:17;;;;;;;15.75;12.38;;;;;;;;;;5016914;28;20553;-74
2022/09/28 02:20:46;;;;;;;16.10;11.65;;;;;;;;;;5034232;28;20109;-74
2022/09/28 02:23:12;;;;;;;19.08;12.25;;;;;;;;;;5034211;28;20048;-74
2022/09/28 02:25:51;;;;;;;20.05;11.95;;;;;;;;;;5034190;28;20053;-74
2022/09/28 02:28:17;;;;;;;18.48;11.52;;;;;;;;;;5034489;28;20104;-74
2022/09/28 02:30:43;;;;;;;15.80;11.88;;;;;;;;;;5034170;28;20120;-74
2022/09/28 02:33:15;;;;;;;19.88;12.32;;;;;;;;;;5034365;28;20053;-74
2022/09/28 02:35:41;;;;;;;19.58;11.73;;;;;;;;;;5034107;28;20018;-73
2022/09/28 02:38:09;;;;;;;14.90;11.38;;;;;;;;;;5034401;28;20029;-73
2022/09/28 02:40:36;;;;;;;18.08;12.48;;;;;;;;;;5033938;28;20488;-74
2022/09/28 02:43:21;;;;;;;19.02;12.52;;;;;;;;;;5034161;28;20025;-74
2022/09/28 02:46:01;;;;;;;17.23;11.88;;;;;;;;;;5033622;28;20501;-75
2022/09/28 02:48:36;;;;;;;13.43;10.43;;;;;;;;;;5016361;28;20045;-74
2022/09/28 02:51:14;;;;;;;16.85;12.05;;;;;;;;;;5033732;28;20018;-74
2022/09/28 02:53:43;;;;;;;18.27;11.20;;;;;;;;;;5016327;28;20032;-73
2022/09/28 02:56:22;;;;;;;14.90;10.70;;;;;;;;;;5033978;28;20597;-75
2022/09/28 02:59:07;;;;;;;14.95;10.60;;;;;;;;;;5016656;28;20112;-74
2022/09/28 03:01:51;;;;;;;14.50;10.93;;;;;;;;;;5034292;28;20091;-75
2022/09/28 03:04:29;;;;;;;16.53;10.47;;;;;;;;;;5016942;28;20025;-74
2022/09/28 03:07:00;;;;;;;13.93;10.07;;;;;;;;;;5034452;28;20034;-74
2022/09/28 03:09:31;;;;;;;15.85;10.57;;;;;;;;;;5035079;28;20025;-74
2022/09/28 03:12:00;;;;;;;15.20;10.75;;;;;;;;;;5034379;28;20453;-74
2022/09/28 03:14:26;;;;;;;15.60;10.05;;;;;;;;;;5016731;28;20120;-74
2022/09/28 03:16:52;;;;;;;13.90;10.27;;;;;;;;;;5016693;28;20023;-75
2022/09/28 03:19:20;;;;;;;15.48;9.85;;;;;;;;;;5034827;28;20122;-75
2022/09/28 03:21:47;;;;;;;16.83;10.23;;;;;;;;;;5016816;28;20030;-74
2022/09/28 03:24:13;;;;;;;12.65;9.25;;;;;;;;;;5035117;28;20025;-75
2022/09/28 03:26:39;;;;;;;17.92;10.43;;;;;;;;;;5035661;28;20085;-75
2022/09/28 03:29:05;;;;;;;14.18;9.98;;;;;;;;;;5036206;28;20029;-74
2022/09/28 03:31:31;;;;;;;18.33;10.50;;;;;;;;;;5036014;28;20025;-73
2022/09/28 03:33:57;;;;;;;13.93;9.45;;;;;;;;;;5042228;28;20017;-73
2022/09/28 03:36:23;;;;;;;16.88;9.75;;;;;;;;;;5036923;28;20028;-74
2022/09/28 03:38:51;;;;;;;13.75;9.48;;;;;;;;;;5016356;28;20033;-74
2022/09/28 03:41:17;;;;;;;14.63;9.10;;;;;;;;;;5039008;28;20021;-74
2022/09/28 03:43:43;;;;;;;16.73;11.00;;;;;;;;;;5031160;28;20041;-74
2022/09/28 03:46:09;;;;;;;16.75;10.63;;;;;;;;;;5036607;28;20029;-74
2022/09/28 03:48:35;;;;;;;14.35;9.85;;;;;;;;;;5055405;28;20048;-74
2022/09/28 03:51:03;;;;;;;15.25;9.25;;;;;;;;;;5054982;28;20029;-74
2022/09/28 03:53:29;;;;;;;13.88;8.88;;;;;;;;;;5053980;28;20052;-74
2022/09/28 03:55:55;;;;;;;13.35;9.70;;;;;;;;;;5052334;28;20037;-74
2022/09/28 03:58:22;;;;;;;12.30;9.02;;;;;;;;;;5056770;28;20034;-74
2022/09/28 04:00:48;;;;;;;18.65;10.45;;;;;;;;;;5039501;28;20033;-74
2022/09/28 04:03:14;;;;;;;14.73;10.40;;;;;;;;;;5057179;28;20063;-74
2022/09/28 04:05:50;;;;;;;17.48;12.23;;;;;;;;;;5056242;28;20033;-74
2022/09/28 04:08:16;;;;;;;16.33;10.13;;;;;;;;;;5057200;28;20036;-75
2022/09/28 04:10:42;;;;;;;17.77;11.32;;;;;;;;;;5057059;28;20039;-74
2022/09/28 04:13:08;;;;;;;18.75;12.18;;;;;;;;;;5057142;28;20045;-74
2022/09/28 04:15:35;;;;;;;19.73;12.68;;;;;;;;;;5056854;28;20018;-73
2022/09/28 04:18:01;;;;;;;21.85;13.93;;;;;;;;;;5057452;28;20014;-73
2022/09/28 04:20:27;;;;;;;20.88;14.50;;;;;;;;;;5057319;28;20077;-73
2022/09/28 04:22:54;;;;;;;27.73;15.13;;;;;;;;;;5039621;28;20037;-73
2022/09/28 04:25:19;;;;;;;19.30;14.18;;;;;;;;;;5050913;28;20076;-74
2022/09/28 04:30:30;;;;;;;27.15;17.77;;;;;;;;;;5057047;28;20092;-74
2022/09/28 04:32:56;;;;;;;26.35;17.85;;;;;;;;;;5053312;28;20025;-73
2022/09/28 04:35:22;;;;;;;29.15;18.85;;;;;;;;;;5040855;28;20500;-74
2022/09/28 04:37:48;;;;;;;27.73;17.48;;;;;;;;;;5034389;28;20390;-73
2022/09/28 04:40:14;;;;;;;31.50;20.83;;;;;;;;;;5036912;28;20030;-74
2022/09/28 04:42:40;;;;;;;34.50;20.75;;;;;;;;;;5045846;28;20036;-74
2022/09/28 04:45:06;;;;;;;29.67;19.85;;;;;;;;;;5050159;28;20039;-73
2022/09/28 04:47:32;;;;;;;32.80;21.40;;;;;;;;;;5050013;28;20034;-74
2022/09/28 04:49:58;;;;;;;32.97;21.48;;;;;;;;;;5048554;28;20147;-74
2022/09/28 04:52:25;;;;;;;36.53;23.42;;;;;;;;;;5040098;28;20105;-74
2022/09/28 04:54:51;;;;;;;35.65;22.35;;;;;;;;;;5040507;28;20014;-74
2022/09/28 04:57:17;;;;;;;32.65;22.67;;;;;;;;;;5017891;28;20376;-75
2022/09/28 04:59:43;;;;;;;34.10;22.00;;;;;;;;;;5035674;28;20053;-74
2022/09/28 05:02:09;;;;;;;32.47;21.73;;;;;;;;;;5024546;28;20486;-74
2022/09/28 05:04:35;;;;;;;37.35;24.02;;;;;;;;;;5042269;28;20039;-74
2022/09/28 05:07:01;;;;;;;35.38;23.98;;;;;;;;;;5046291;28;20049;-74
2022/09/28 05:09:27;;;;;;;37.75;23.45;;;;;;;;;;5050211;28;20029;-75
2022/09/28 05:11:53;;;;;;;35.22;24.42;;;;;;;;;;5048257;28;20040;-75
2022/09/28 05:14:20;;;;;;;32.80;22.02;;;;;;;;;;5050691;28;20429;-75
2022/09/28 05:16:47;;;;;;;40.00;23.80;;;;;;;;;;5042717;28;20036;-74
2022/09/28 05:19:13;;;;;;;36.35;23.83;;;;;;;;;;5037448;28;20069;-75
2022/09/28 05:21:39;;;;;;;38.80;23.02;;;;;;;;;;5036567;28;20072;-75
2022/09/28 05:24:06;;;;;;;35.75;23.83;;;;;;;;;;5019403;28;20120;-74
2022/09/28 05:26:32;;;;;;;35.72;23.95;;;;;;;;;;5045082;28;20041;-73
2022/09/28 05:28:58;;;;;;;40.83;24.48;;;;;;;;;;5045453;28;20025;-74
2022/09/28 05:31:26;;;;;;;40.13;23.95;;;;;;;;;;5029952;28;20459;-72
2022/09/28 05:33:52;;;;;;;32.78;22.52;;;;;;;;;;5046719;28;20079;-73
2022/09/28 05:36:18;;;;;;;37.83;23.88;;;;;;;;;;5019774;28;20025;-73
2022/09/28 05:38:45;;;;;;;36.50;23.27;;;;;;;;;;5019514;28;20403;-73
2022/09/28 05:41:11;;;;;;;36.10;23.98;;;;;;;;;;5036889;28;20064;-73
2022/09/28 05:43:37;;;;;;;34.67;23.95;;;;;;;;;;5036750;28;20018;-74
2022/09/28 05:46:04;;;;;;;39.58;23.50;;;;;;;;;;5037156;28;20025;-73
2022/09/28 05:48:30;;;;;;;36.90;22.35;;;;;;;;;;5036721;28;20029;-73
2022/09/28 05:50:57;;;;;;;33.55;22.20;;;;;;;;;;5039109;28;20390;-73
2022/09/28 05:53:24;;;;;;;33.75;21.08;;;;;;;;;;5039569;28;20014;-73
2022/09/28 05:55:50;;;;;;;37.17;23.17;;;;;;;;;;5039616;28;20028;-73
2022/09/28 05:58:16;;;;;;;32.70;22.30;;;;;;;;;;5024944;28;20470;-73
2022/09/28 06:00:42;;;;;;;36.70;23.05;;;;;;;;;;5043832;28;20021;-73
2022/09/28 06:03:11;;;;;;;32.05;22.05;;;;;;;;;;5047241;28;20489;-75
2022/09/28 06:05:38;;;;;;;39.30;22.80;;;;;;;;;;5045587;28;20060;-74
2022/09/28 06:08:04;;;;;;;34.13;22.50;;;;;;;;;;5030224;28;20036;-73
2022/09/28 06:10:30;;;;;;;39.28;23.30;;;;;;;;;;5043170;28;20029;-73
2022/09/28 06:12:56;;;;;;;33.90;21.92;;;;;;;;;;5038705;28;20120;-74
2022/09/28 06:15:23;;;;;;;29.52;20.55;;;;;;;;;;5041620;28;20437;-74
2022/09/28 06:17:55;;;;;;;33.60;20.90;;;;;;;;;;5045518;28;20163;-75
2022/09/28 06:20:21;;;;;;;28.92;19.90;;;;;;;;;;5047779;28;20029;-73
2022/09/28 06:22:50;;;;;;;29.95;20.70;;;;;;;;;;5055656;28;20077;-72
2022/09/28 06:25:16;;;;;;;29.65;20.25;;;;;;;;;;5052680;28;20025;-73
2022/09/28 06:27:42;;;;;;;32.17;20.95;;;;;;;;;;5051783;28;20032;-73
2022/09/28 06:30:08;;;;;;;34.35;21.40;;;;;;;;;;5038954;28;20459;-72
2022/09/28 06:32:34;;;;;;;33.25;21.25;;;;;;;;;;5036070;28;20053;-73
2022/09/28 06:35:00;;;;;;;35.30;22.52;;;;;;;;;;5017853;28;20471;-73
2022/09/28 06:37:27;;;;;;;31.80;21.85;;;;;;;;;;5035249;28;20087;-73
2022/09/28 06:39:53;;;;;;;32.78;21.88;;;;;;;;;;5035556;28;20025;-74
2022/09/28 06:42:19;;;;;;;40.50;21.80;;;;;;;;;;5035147;28;20037;-73
2022/09/28 06:44:45;;;;;;;30.35;21.38;;;;;;;;;;5035583;28;20384;-74
2022/09/28 06:47:11;;;;;;;33.25;21.40;;;;;;;;;;5018061;28;20032;-74
2022/09/28 06:49:37;;;;;;;29.90;19.40;;;;;;;;;;5017782;28;20026;-75
2022/09/28 06:52:04;;;;;;;29.85;20.70;;;;;;;;;;5034957;28;20386;-74
2022/09/28 06:54:30;;;;;;;29.80;20.08;;;;;;;;;;5034900;28;20021;-73
2022/09/28 06:56:56;;;;;;;35.95;22.02;;;;;;;;;;5032103;28;20083;-75
2022/09/28 06:59:22;;;;;;;28.52;18.98;;;;;;;;;;5034616;28;20036;-74
2022/09/28 07:01:48;;;;;;;32.17;20.63;;;;;;;;;;5034663;28;20078;-74
2022/09/28 07:04:14;;;;;;;60.42;31.88;;;;;;;;;;5034049;28;20025;-74
2022/09/28 07:06:45;;;;;;;97.35;44.60;;;;;;;;;;5016802;28;20032;-74
2022/09/28 07:09:11;;;;;;;54.13;30.45;;;;;;;;;;5034785;28;20032;-72
2022/09/28 07:11:40;;;;;;;56.88;30.85;;;;;;;;;;5034427;28;20390;-74
2022/09/28 07:14:08;;;;;;;88.60;40.22;;;;;;;;;;5035675;28;20025;-73
2022/09/28 07:16:34;;;;;;;34.80;22.00;;;;;;;;;;5035216;28;20025;-76
2022/09/28 07:19:00;;;;;;;36.25;22.80;;;;;;;;;;5034665;28;20026;-74
2022/09/28 07:21:26;;;;;;;35.17;22.55;;;;;;;;;;5036692;28;20040;-75
2022/09/28 07:23:53;;;;;;;34.40;21.70;;;;;;;;;;5033818;28;20501;-78
2022/09/28 07:26:19;;;;;;;31.13;21.17;;;;;;;;;;5033182;28;20033;-74
2022/09/28 07:28:45;;;;;;;37.38;22.63;;;;;;;;;;5033347;28;20025;-76
2022/09/28 07:31:11;;;;;;;34.00;21.27;;;;;;;;;;5032970;28;20507;-75
2022/09/28 07:33:37;;;;;;;29.58;21.00;;;;;;;;;;5033142;28;20021;-74
2022/09/28 07:36:05;;;;;;;32.00;20.92;;;;;;;;;;5034186;28;20363;-77
2022/09/28 07:38:32;;;;;;;35.00;23.30;;;;;;;;;;5034688;28;20383;-76
2022/09/28 07:41:10;;;;;;;49.35;26.55;;;;;;;;;;5034534;28;20457;-76
2022/09/28 07:43:38;;;;;;;43.40;27.15;;;;;;;;;;5016259;28;20040;-75
2022/09/28 07:46:10;;;;;;;38.78;24.13;;;;;;;;;;5033593;28;20398;-75
2022/09/28 07:48:36;;;;;;;45.45;26.85;;;;;;;;;;5033635;28;20034;-77
2022/09/28 07:51:03;;;;;;;54.53;31.35;;;;;;;;;;5033647;28;20458;-75
2022/09/28 07:53:29;;;;;;;52.90;30.23;;;;;;;;;;5036683;28;20470;-75
2022/09/28 07:56:00;;;;;;;52.42;29.20;;;;;;;;;;5017603;28;20104;-76
2022/09/28 07:58:26;;;;;;;47.67;25.95;;;;;;;;;;5034367;28;20023;-76
2022/09/28 08:00:52;;;;;;;36.17;23.13;;;;;;;;;;5033838;28;20040;-77
2022/09/28 08:03:23;;;;;;;41.13;24.10;;;;;;;;;;5033113;28;20029;-76
2022/09/28 08:05:49;;;;;;;36.35;23.25;;;;;;;;;;5034807;28;20044;-76
2022/09/28 08:08:15;;;;;;;45.05;24.92;;;;;;;;;;5018512;28;20503;-75
2022/09/28 08:10:44;;;;;;;36.60;23.60;;;;;;;;;;5036158;28;20021;-75
2022/09/28 08:13:10;;;;;;;38.10;24.30;;;;;;;;;;5021519;28;20172;-76
2022/09/28 08:15:37;;;;;;;40.10;25.55;;;;;;;;;;5038352;28;20463;-76
2022/09/28 08:18:03;;;;;;;35.17;23.25;;;;;;;;;;5018044;28;20112;-76
2022/09/28 08:23:15;;;;;;;46.22;30.50;;;;;;;;;;5032690;28;20068;-75
2022/09/28 08:25:45;;;;;;;38.95;24.73;;;;;;;;;;5032040;28;20032;-75
2022/09/28 08:28:12;;;;;;;34.80;23.05;;;;;;;;;;5032111;28;20026;-75
2022/09/28 08:30:37;;;;;;;41.55;23.45;;;;;;;;;;5014875;28;20029;-77
2022/09/28 08:33:06;;;;;;;31.05;20.95;;;;;;;;;;5033863;28;20030;-76
2022/09/28 08:35:32;;;;;;;30.23;18.98;;;;;;;;;;5014972;28;20026;-74
2022/09/28 08:38:02;;;;;;;29.15;20.17;;;;;;;;;;5037512;28;20034;-78
2022/09/28 08:40:28;;;;;;;34.33;21.63;;;;;;;;;;5035280;28;20474;-73
2022/09/28 08:42:57;;;;;;;31.88;19.10;;;;;;;;;;5031362;28;20021;-76
2022/09/28 08:45:27;;;;;;;25.25;17.55;;;;;;;;;;5059566;28;20010;-75
2022/09/28 08:50:46;;;;;;;22.73;15.05;;;;;;;;;;5035721;28;20036;-76
2022/09/28 08:53:30;;;;;;;34.00;18.35;;;;;;;;;;5037019;28;20056;-75
2022/09/28 08:55:57;;;;;;;22.52;16.00;;;;;;;;;;5036886;28;20074;-75
2022/09/28 08:58:27;;;;;;;22.52;16.15;;;;;;;;;;5037457;28;20041;-74
2022/09/28 09:00:53;;;;;;;22.20;15.88;;;;;;;;;;5039920;28;20463;-75
2022/09/28 09:03:28;;;;;;;22.90;14.70;;;;;;;;;;5021350;28;20310;-75
2022/09/28 09:06:06;;;;;;;21.95;14.85;;;;;;;;;;5041053;28;20025;-76
2022/09/28 09:08:35;;;;;;;21.50;14.10;;;;;;;;;;5020357;28;20029;-75
2022/09/28 09:11:20;;;;;;;23.30;14.82;;;;;;;;;;5039165;28;20053;-77
2022/09/28 09:13:55;;;;;;;26.30;14.95;;;;;;;;;;5039874;28;20033;-75
2022/09/28 09:16:24;;;;;;;21.45;13.50;;;;;;;;;;5039552;28;20033;-74
2022/09/28 09:18:53;;;;;;;20.08;13.57;;;;;;;;;;5037829;28;20029;-75
2022/09/28 09:21:38;;;;;;;19.23;12.88;;;;;;;;;;5035660;28;20083;-75
2022/09/28 09:24:07;;;;;;;19.83;13.18;;;;;;;;;;5034833;28;20482;-77
2022/09/28 09:26:38;;;;;;;18.25;12.32;;;;;;;;;;5034783;28;20030;-76
2022/09/28 09:29:13;;;;;;;19.83;13.13;;;;;;;;;;5034660;28;20112;-75
2022/09/28 09:31:38;;;;;;;18.58;11.38;;;;;;;;;;5034735;28;20045;-73
2022/09/28 09:34:17;;;;;;;21.35;13.35;;;;;;;;;;5034514;28;20018;-74
2022/09/28 09:37:02;;;;;;;18.58;11.15;;;;;;;;;;5034566;28;20033;-76
2022/09/28 09:39:46;;;;;;;16.70;10.70;;;;;;;;;;5034527;28;20378;-73
2022/09/28 09:42:23;;;;;;;16.58;9.80;;;;;;;;;;5034545;28;20029;-72
2022/09/28 09:45:11;;;;;;;16.85;10.05;;;;;;;;;;5034670;28;20064;-75
2022/09/28 09:47:38;;;;;;;12.63;9.02;;;;;;;;;;5034050;28;20245;-75
2022/09/28 09:50:31;;;;;;;15.32;9.68;;;;;;;;;;5034384;28;20033;-74
2022/09/28 09:53:02;;;;;;;20.65;12.27;;;;;;;;;;5019160;28;20501;-75
2022/09/28 09:55:31;;;;;;;75.20;31.48;;;;;;;;;;5018176;28;20064;-76
2022/09/28 09:58:16;;;;;;;38.55;18.15;;;;;;;;;;5041820;28;20490;-78
2022/09/28 10:00:44;;;;;;;43.65;20.30;;;;;;;;;;5034692;28;20398;-76
2022/09/28 10:03:31;;;;;;;442.17;51.22;;;;;;;;;;5034883;28;20025;-75
2022/09/28 10:06:02;;;;;;;73.63;19.02;;;;;;;;;;5037121;28;20099;-76
2022/09/28 10:08:30;;;;;;;165.45;24.95;;;;;;;;;;5019633;28;20120;-75
2022/09/28 10:11:20;;;;;;;99.68;16.30;;;;;;;;;;5036233;28;20501;-74
2022/09/28 10:13:48;;;;;;;44.17;12.90;;;;;;;;;;5027683;28;20447;-77
2022/09/28 10:16:14;;;;;;;120.07;18.83;;;;;;;;;;5033978;28;20618;-73
2022/09/28 10:18:40;;;;;;;186.88;23.52;;;;;;;;;;5016806;28;20047;-75
2022/09/28 10:21:06;;;;;;;100.82;14.45;;;;;;;;;;5016951;28;20029;-74
2022/09/28 10:23:33;;;;;;;485.75;55.08;;;;;;;;;;5016985;28;20026;-76
2022/09/28 10:26:02;;;;;;;99.97;21.77;;;;;;;;;;5017512;28;20099;-74
2022/09/28 10:28:40;;;;;;;24.00;8.40;;;;;;;;;;5035016;28;20470;-76
2022/09/28 10:31:26;;;;;;;35.30;8.90;;;;;;;;;;5034723;28;20033;-75
2022/09/28 10:33:52;;;;;;;14.68;6.20;;;;;;;;;;5034427;28;20022;-76
2022/09/28 10:36:18;;;;;;;10.10;4.72;;;;;;;;;;5034559;28;20029;-77
2022/09/28 10:38:47;;;;;;;10.73;4.57;;;;;;;;;;5034911;28;20060;-75
2022/09/28 10:41:15;;;;;;;9.95;4.85;;;;;;;;;;5016933;28;20556;-75
2022/09/28 10:44:09;;;;;;;9.88;4.00;;;;;;;;;;5034611;28;20471;-74
2022/09/28 10:46:36;;;;;;;7.23;3.43;;;;;;;;;;5032683;28;20116;-76
2022/09/28 10:49:05;;;;;;;9.10;3.00;;;;;;;;;;5038859;28;20583;-73
2022/09/28 10:51:40;;;;;;;5.50;3.05;;;;;;;;;;5035198;28;20033;-75
2022/09/28 10:54:12;;;;;;;5.32;2.65;;;;;;;;;;5035388;28;20021;-75
2022/09/28 10:56:40;;;;;;;5.55;2.80;;;;;;;;;;5039401;28;20053;-75
2022/09/28 10:59:26;;;;;;;5.13;2.08;;;;;;;;;;5034510;28;20025;-75
2022/09/28 11:01:54;;;;;;;5.55;2.30;;;;;;;;;;5014351;28;20038;-76
2022/09/28 11:04:21;;;;;;;4.32;1.65;;;;;;;;;;5032013;28;20038;-74
2022/09/28 11:06:49;;;;;;;10.27;5.72;;;;;;;;;;5047514;28;20478;-75
2022/09/28 11:09:35;;;;;;;8.20;2.72;;;;;;;;;;5050765;28;20033;-76
2022/09/28 11:12:04;;;;;;;5.38;2.40;;;;;;;;;;5047088;28;20037;-77
2022/09/28 11:14:35;;;;;;;5.65;1.95;;;;;;;;;;5035506;28;20395;-74
2022/09/28 11:17:20;;;;;;;2.60;1.80;;;;;;;;;;5038269;28;20075;-75
2022/09/28 11:19:46;;;;;;;2.33;1.60;;;;;;;;;;5018510;28;20052;-75
2022/09/28 11:22:27;;;;;;;4.88;2.10;;;;;;;;;;5019440;28;20029;-75
2022/09/28 11:25:11;;;;;;;6.35;2.15;;;;;;;;;;5034857;28;20052;-77
2022/09/28 11:27:38;;;;;;;4.88;2.42;;;;;;;;;;5039572;28;20032;-74
2022/09/28 11:30:04;;;;;;;6.07;2.45;;;;;;;;;;5048266;28;20385;-75
2022/09/28 11:32:39;;;;;;;4.68;2.17;;;;;;;;;;5031168;28;20029;-75
2022/09/28 11:35:05;;;;;;;5.75;3.75;;;;;;;;;;5047776;28;20028;-74
2022/09/28 11:37:50;;;;;;;6.93;2.50;;;;;;;;;;5049005;28;20041;-73
2022/09/28 11:40:19;;;;;;;4.05;2.20;;;;;;;;;;5046959;28;20026;-74
2022/09/28 11:43:10;;;;;;;5.03;2.00;;;;;;;;;;5049991;28;20026;-74
2022/09/28 11:45:52;;;;;;;4.50;2.50;;;;;;;;;;5027759;28;20029;-74
2022/09/28 11:48:23;;;;;;;6.18;1.58;;;;;;;;;;5046619;28;20049;-76
2022/09/28 11:50:51;;;;;;;2.92;1.17;;;;;;;;;;5039074;28;20078;-76
2022/09/28 11:53:17;;;;;;;5.18;1.83;;;;;;;;;;5022946;28;20367;-73
2022/09/28 11:55:46;;;;;;;4.03;1.60;;;;;;;;;;5022128;28;20032;-74
2022/09/28 11:58:29;;;;;;;3.10;1.77;;;;;;;;;;5042846;28;20072;-74
2022/09/28 12:01:06;;;;;;;10.95;2.10;;;;;;;;;;5037844;28;20053;-76
2022/09/28 12:03:39;;;;;;;3.25;1.95;;;;;;;;;;5039115;28;20091;-74
2022/09/28 12:06:07;;;;;;;4.10;1.95;;;;;;;;;;5035613;28;20029;-76
2022/09/28 12:08:40;;;;;;;5.57;2.20;;;;;;;;;;5035059;28;20047;-75
2022/09/28 12:11:15;;;;;;;5.32;2.53;;;;;;;;;;5034171;28;20029;-75
2022/09/28 12:13:43;;;;;;;6.28;2.17;;;;;;;;;;5058069;23;20037;31
2022/09/28 12:16:13;;;;;;;7.72;2.20;;;;;;;;;;5028695;28;20045;-70
2022/09/28 12:18:48;;;;;;;5.95;1.83;;;;;;;;;;5032106;28;20030;-70
2022/09/28 12:21:32;;;;;;;6.75;2.45;;;;;;;;;;5034961;28;20067;-68
2022/09/28 12:24:04;;;;;;;8.88;2.90;;;;;;;;;;5033167;28;20021;-70
2022/09/28 12:26:36;;;;;;;4.57;2.20;;;;;;;;;;5034206;28;20029;-71
2022/09/28 12:29:05;;;;;;;3.65;1.92;;;;;;;;;;5035765;28;20577;-71
2022/09/28 12:31:34;;;;;;;6.20;2.80;;;;;;;;;;5032046;28;20496;-70
2022/09/28 12:34:00;;;;;;;6.05;2.10;;;;;;;;;;5031960;28;20545;-70
2022/09/28 12:36:40;;;;;;;6.32;2.08;;;;;;;;;;5031652;28;20498;-69
2022/09/28 12:39:15;;;;;;;4.57;2.17;;;;;;;;;;5031906;28;20021;-69
2022/09/28 12:41:53;;;;;;;3.40;1.38;;;;;;;;;;5032543;28;20030;-72
2022/09/28 12:44:25;;;;;;;8.00;2.80;;;;;;;;;;5016679;28;20107;-71
2022/09/28 12:46:59;;;;;;;8.48;2.22;;;;;;;;;;5031281;28;20037;-69
2022/09/28 12:49:44;;;;;;;4.18;2.35;;;;;;;;;;5031904;28;20049;-70
2022/09/28 12:52:15;;;;;;;12.88;7.80;;;;;;;;;;5031988;28;20078;-71
2022/09/28 12:54:41;;;;;;;2.15;1.33;;;;;;;;;;5031971;28;20033;-68
2022/09/28 12:57:26;;;;;;;3.67;1.35;;;;;;;;;;5031130;28;20030;-70
2022/09/28 13:00:04;;;;;;;2.35;1.35;;;;;;;;;;5031301;28;20475;-68
2022/09/28 13:03:03;;;;;;;3.05;1.63;;;;;;;;;;5031710;28;20025;-69
2022/09/28 13:05:33;;;;;;;2.13;1.10;;;;;;;;;;4989198;28;20132;-70
2022/09/28 13:08:04;;;;;;;2.17;1.00;;;;;;;;;;5032094;28;20551;-71
2022/09/28 13:10:34;;;;;;;4.22;1.40;;;;;;;;;;5033217;28;20037;-74
2022/09/28 13:13:06;;;;;;;9.30;1.92;;;;;;;;;;5035829;28;20443;-69
2022/09/28 13:15:51;;;;;;;4.38;1.40;;;;;;;;;;5035071;28;20029;-71
2022/09/28 13:18:41;;;;;;;5.28;1.98;;;;;;;;;;5030885;28;20105;-70
2022/09/28 13:21:18;;;;;;;3.45;1.17;;;;;;;;;;5020785;28;20041;-70
2022/09/28 13:23:45;;;;;;;3.33;1.35;;;;;;;;;;5014794;28;20040;-71
2022/09/28 13:26:21;;;;;;;3.78;1.80;;;;;;;;;;5014035;28;20041;-70
2022/09/28 13:28:49;;;;;;;3.05;1.52;;;;;;;;;;5016565;28;20032;-72
2022/09/28 13:31:19;;;;;;;3.38;1.90;;;;;;;;;;5036130;28;20077;-71
2022/09/28 13:33:45;;;;;;;3.78;1.83;;;;;;;;;;5036242;28;20075;-70
2022/09/28 13:36:29;;;;;;;4.05;1.58;;;;;;;;;;5035241;28;20029;-70
2022/09/28 13:38:58;;;;;;;4.30;2.10;;;;;;;;;;5037846;28;20026;-70
2022/09/28 13:41:30;;;;;;;5.00;1.80;;;;;;;;;;5016249;28;20029;-69
2022/09/28 13:44:20;;;;;;;8.32;2.22;;;;;;;;;;5037474;28;20029;-70
2022/09/28 13:46:46;;;;;;;4.05;2.00;;;;;;;;;;5025266;28;20068;-70
2022/09/28 13:49:12;;;;;;;5.57;2.75;;;;;;;;;;5018646;28;20688;-70
2022/09/28 13:51:57;;;;;;;4.60;2.72;;;;;;;;;;5036081;28;20100;-75
2022/09/28 13:54:41;;;;;;;7.72;2.38;;;;;;;;;;5037487;28;20017;-69
2022/09/28 13:57:18;;;;;;;5.72;2.53;;;;;;;;;;5038147;28;20056;-72
2022/09/28 13:59:56;;;;;;;8.13;2.55;;;;;;;;;;5019212;28;20014;-69
2022/09/28 14:02:49;;;;;;;6.63;2.00;;;;;;;;;;5015761;28;20061;-70
2022/09/28 14:05:21;;;;;;;5.63;2.35;;;;;;;;;;4994261;28;20084;-71
2022/09/28 14:08:10;;;;;;;5.45;1.95;;;;;;;;;;5015661;28;20030;-71
2022/09/28 14:10:52;;;;;;;3.28;1.80;;;;;;;;;;5015281;28;20031;-71
2022/09/28 14:13:37;;;;;;;6.65;2.63;;;;;;;;;;5023786;28;20044;-70
2022/09/28 14:16:19;;;;;;;8.18;2.47;;;;;;;;;;5033653;28;20051;-71
2022/09/28 14:18:48;;;;;;;7.25;2.15;;;;;;;;;;5052526;28;20079;-69
2022/09/28 14:21:32;;;;;;;3.70;2.03;;;;;;;;;;5053955;28;20025;-70
2022/09/28 14:24:04;;;;;;;5.68;3.13;;;;;;;;;;5053624;28;20035;-70
2022/09/28 14:26:40;;;;;;;9.27;2.42;;;;;;;;;;5053267;28;20033;-71
2022/09/28 14:29:27;;;;;;;6.72;2.65;;;;;;;;;;5036811;28;20025;-71
2022/09/28 14:31:53;;;;;;;2.75;1.90;;;;;;;;;;5053989;28;20033;-70
2022/09/28 14:34:24;;;;;;;5.35;2.08;;;;;;;;;;5053965;28;20027;-71
2022/09/28 14:42:22;;;;;;;5.88;2.47;;;;;;;;;;5055514;28;20048;-71
2022/09/28 14:45:00;;;;;;;9.27;3.15;;;;;;;;;;5056217;28;20025;-71
2022/09/28 14:47:35;;;;;;;3.83;2.30;;;;;;;;;;5054264;28;20032;-70
2022/09/28 14:50:21;;;;;;;6.18;2.50;;;;;;;;;;5054358;28;20095;-73
2022/09/28 14:52:50;;;;;;;5.50;2.88;;;;;;;;;;5039641;28;20059;-70
2022/09/28 14:55:17;;;;;;;3.55;2.10;;;;;;;;;;5053354;28;20537;-71
2022/09/28 14:57:44;;;;;;;6.95;2.80;;;;;;;;;;5053802;28;20043;-71
2022/09/28 15:00:19;;;;;;;5.55;2.47;;;;;;;;;;5053861;28;20025;-71